sensor_id;sensor_type;location;lat;lon;timestamp;P1;durP1;ratioP1;P2;durP2;ratioP2
1174;SDS011;576;48.418;10.074;2022-09-09T00:01:00;1.40;;;1.30;;
1174;SDS011;576;48.418;10.074;2022-09-09T00:03:36;1.80;;;1.40;;
1174;SDS011;576;48.418;10.074;2022-09-09T00:06:13;1.20;;;1.10;;
1174;SDS011;576;48.418;10.074;2022-09-09T00:08:51;1.70;;;1.60;;
1174;SDS011;576;48.418;10.074;2022-09-09T00:11:28;1.17;;;1.03;;
1174;SDS011;576;48.418;10.074;2022-09-09T00:14:03;1.43;;;1.33;;
1174;SDS011;576;48.418;10.074;2022-09-09T00:16:41;1.03;;;1.00;;
1174;SDS011;576;48.418;10.074;2022-09-09T00:19:14;1.17;;;1.07;;
1174;SDS011;576;48.418;10.074;2022-09-09T00:21:50;2.23;;;1.20;;
1174;SDS011;576;48.418;10.074;2022-09-09T00:24:24;1.80;;;1.33;;
1174;SDS011;576;48.418;10.074;2022-09-09T00:26:56;2.13;;;1.30;;
1174;SDS011;576;48.418;10.074;2022-09-09T00:29:30;2.17;;;1.50;;
1174;SDS011;576;48.418;10.074;2022-09-09T00:32:09;1.40;;;1.30;;
1174;SDS011;576;48.418;10.074;2022-09-09T00:34:42;1.33;;;1.20;;
1174;SDS011;576;48.418;10.074;2022-09-09T00:37:15;2.17;;;1.30;;
1174;SDS011;576;48.418;10.074;2022-09-09T00:39:46;1.30;;;1.20;;
1174;SDS011;576;48.418;10.074;2022-09-09T00:42:15;1.40;;;1.30;;
1174;SDS011;576;48.418;10.074;2022-09-09T00:44:56;2.67;;;1.30;;
1174;SDS011;576;48.418;10.074;2022-09-09T00:47:40;1.60;;;1.40;;
1174;SDS011;576;48.418;10.074;2022-09-09T00:50:28;1.77;;;1.63;;
1174;SDS011;576;48.418;10.074;2022-09-09T00:53:11;2.60;;;1.73;;
1174;SDS011;576;48.418;10.074;2022-09-09T00:55:48;1.40;;;1.30;;
1174;SDS011;576;48.418;10.074;2022-09-09T00:58:21;1.10;;;1.07;;
1174;SDS011;576;48.418;10.074;2022-09-09T01:00:50;1.67;;;1.57;;
1174;SDS011;576;48.418;10.074;2022-09-09T01:03:28;1.60;;;1.50;;
1174;SDS011;576;48.418;10.074;2022-09-09T01:06:04;2.57;;;1.20;;
1174;SDS011;576;48.418;10.074;2022-09-09T01:11:49;1.20;;;1.20;;
1174;SDS011;576;48.418;10.074;2022-09-09T01:14:37;1.27;;;1.17;;
1174;SDS011;576;48.418;10.074;2022-09-09T01:17:12;1.57;;;1.47;;
1174;SDS011;576;48.418;10.074;2022-09-09T01:19:58;1.37;;;1.27;;
1174;SDS011;576;48.418;10.074;2022-09-09T01:22:40;1.43;;;1.33;;
1174;SDS011;576;48.418;10.074;2022-09-09T01:25:20;1.40;;;1.30;;
1174;SDS011;576;48.418;10.074;2022-09-09T01:28:08;1.67;;;1.33;;
1174;SDS011;576;48.418;10.074;2022-09-09T01:30:39;1.40;;;1.30;;
1174;SDS011;576;48.418;10.074;2022-09-09T01:33:12;5.13;;;1.47;;
1174;SDS011;576;48.418;10.074;2022-09-09T01:35:43;1.10;;;1.10;;
1174;SDS011;576;48.418;10.074;2022-09-09T01:38:18;2.30;;;1.50;;
1174;SDS011;576;48.418;10.074;2022-09-09T01:40:49;1.63;;;1.47;;
1174;SDS011;576;48.418;10.074;2022-09-09T01:43:23;1.13;;;1.03;;
1174;SDS011;576;48.418;10.074;2022-09-09T01:45:53;1.50;;;1.40;;
1174;SDS011;576;48.418;10.074;2022-09-09T01:48:23;1.90;;;1.30;;
1174;SDS011;576;48.418;10.074;2022-09-09T01:51:01;1.00;;;1.00;;
1174;SDS011;576;48.418;10.074;2022-09-09T01:53:36;1.20;;;1.10;;
1174;SDS011;576;48.418;10.074;2022-09-09T01:56:10;1.50;;;0.97;;
1174;SDS011;576;48.418;10.074;2022-09-09T01:58:51;1.30;;;1.20;;
1174;SDS011;576;48.418;10.074;2022-09-09T02:01:35;1.37;;;1.20;;
1174;SDS011;576;48.418;10.074;2022-09-09T02:04:18;1.23;;;1.13;;
1174;SDS011;576;48.418;10.074;2022-09-09T02:06:55;1.57;;;1.37;;
1174;SDS011;576;48.418;10.074;2022-09-09T02:09:28;1.73;;;1.30;;
1174;SDS011;576;48.418;10.074;2022-09-09T02:11:59;1.60;;;1.30;;
1174;SDS011;576;48.418;10.074;2022-09-09T02:14:42;1.70;;;1.60;;
1174;SDS011;576;48.418;10.074;2022-09-09T02:17:18;1.73;;;1.33;;
1174;SDS011;576;48.418;10.074;2022-09-09T02:20:03;2.80;;;1.47;;
1174;SDS011;576;48.418;10.074;2022-09-09T02:22:42;2.10;;;1.70;;
1174;SDS011;576;48.418;10.074;2022-09-09T02:25:15;1.60;;;1.50;;
1174;SDS011;576;48.418;10.074;2022-09-09T02:27:47;1.30;;;1.20;;
1174;SDS011;576;48.418;10.074;2022-09-09T02:30:19;1.90;;;1.77;;
1174;SDS011;576;48.418;10.074;2022-09-09T02:32:57;2.10;;;1.67;;
1174;SDS011;576;48.418;10.074;2022-09-09T02:35:44;2.90;;;1.43;;
1174;SDS011;576;48.418;10.074;2022-09-09T02:38:17;1.83;;;1.53;;
1174;SDS011;576;48.418;10.074;2022-09-09T02:40:57;1.80;;;1.67;;
1174;SDS011;576;48.418;10.074;2022-09-09T02:43:25;2.93;;;2.10;;
1174;SDS011;576;48.418;10.074;2022-09-09T02:46:01;2.00;;;1.80;;
1174;SDS011;576;48.418;10.074;2022-09-09T02:48:39;1.57;;;1.47;;
1174;SDS011;576;48.418;10.074;2022-09-09T02:51:18;1.60;;;1.50;;
1174;SDS011;576;48.418;10.074;2022-09-09T02:53:53;1.80;;;1.70;;
1174;SDS011;576;48.418;10.074;2022-09-09T02:56:29;2.17;;;1.63;;
1174;SDS011;576;48.418;10.074;2022-09-09T02:59:02;2.13;;;2.00;;
1174;SDS011;576;48.418;10.074;2022-09-09T03:01:34;1.37;;;1.20;;
1174;SDS011;576;48.418;10.074;2022-09-09T03:04:02;1.60;;;1.50;;
1174;SDS011;576;48.418;10.074;2022-09-09T03:06:31;1.50;;;1.40;;
1174;SDS011;576;48.418;10.074;2022-09-09T03:09:09;1.90;;;1.70;;
1174;SDS011;576;48.418;10.074;2022-09-09T03:11:37;1.50;;;1.40;;
1174;SDS011;576;48.418;10.074;2022-09-09T03:14:06;1.40;;;1.30;;
1174;SDS011;576;48.418;10.074;2022-09-09T03:16:37;1.80;;;1.40;;
1174;SDS011;576;48.418;10.074;2022-09-09T03:19:05;1.87;;;1.30;;
1174;SDS011;576;48.418;10.074;2022-09-09T03:21:34;1.50;;;1.40;;
1174;SDS011;576;48.418;10.074;2022-09-09T03:24:02;1.10;;;1.10;;
1174;SDS011;576;48.418;10.074;2022-09-09T03:26:30;1.83;;;1.60;;
1174;SDS011;576;48.418;10.074;2022-09-09T03:29:00;1.67;;;1.57;;
1174;SDS011;576;48.418;10.074;2022-09-09T03:31:29;1.47;;;1.37;;
1174;SDS011;576;48.418;10.074;2022-09-09T03:33:59;1.43;;;1.33;;
1174;SDS011;576;48.418;10.074;2022-09-09T03:36:30;1.90;;;1.80;;
1174;SDS011;576;48.418;10.074;2022-09-09T03:38:59;1.60;;;1.50;;
1174;SDS011;576;48.418;10.074;2022-09-09T03:41:30;3.10;;;1.77;;
1174;SDS011;576;48.418;10.074;2022-09-09T03:44:00;1.20;;;1.17;;
1174;SDS011;576;48.418;10.074;2022-09-09T03:46:33;1.30;;;1.20;;
1174;SDS011;576;48.418;10.074;2022-09-09T03:49:02;1.23;;;1.13;;
1174;SDS011;576;48.418;10.074;2022-09-09T03:51:31;1.60;;;1.50;;
1174;SDS011;576;48.418;10.074;2022-09-09T03:54:04;1.20;;;1.10;;
1174;SDS011;576;48.418;10.074;2022-09-09T03:56:35;1.40;;;1.30;;
1174;SDS011;576;48.418;10.074;2022-09-09T03:59:03;1.40;;;1.10;;
1174;SDS011;576;48.418;10.074;2022-09-09T04:01:32;1.57;;;1.47;;
1174;SDS011;576;48.418;10.074;2022-09-09T04:04:00;1.30;;;1.20;;
1174;SDS011;576;48.418;10.074;2022-09-09T04:06:30;1.37;;;1.20;;
1174;SDS011;576;48.418;10.074;2022-09-09T04:08:58;1.40;;;1.30;;
1174;SDS011;576;48.418;10.074;2022-09-09T04:11:30;1.17;;;1.07;;
1174;SDS011;576;48.418;10.074;2022-09-09T04:13:59;1.50;;;1.27;;
1174;SDS011;576;48.418;10.074;2022-09-09T04:16:29;1.73;;;1.20;;
1174;SDS011;576;48.418;10.074;2022-09-09T04:18:58;1.17;;;1.13;;
1174;SDS011;576;48.418;10.074;2022-09-09T04:21:27;1.70;;;0.97;;
1174;SDS011;576;48.418;10.074;2022-09-09T04:23:58;1.53;;;1.43;;
1174;SDS011;576;48.418;10.074;2022-09-09T04:26:26;1.30;;;1.20;;
1174;SDS011;576;48.418;10.074;2022-09-09T04:28:54;1.10;;;1.10;;
1174;SDS011;576;48.418;10.074;2022-09-09T04:31:24;1.90;;;1.53;;
1174;SDS011;576;48.418;10.074;2022-09-09T04:33:55;1.67;;;1.20;;
1174;SDS011;576;48.418;10.074;2022-09-09T04:36:24;1.20;;;1.10;;
1174;SDS011;576;48.418;10.074;2022-09-09T04:38:58;1.70;;;1.17;;
1174;SDS011;576;48.418;10.074;2022-09-09T04:41:27;1.40;;;1.30;;
1174;SDS011;576;48.418;10.074;2022-09-09T04:43:58;1.10;;;1.07;;
1174;SDS011;576;48.418;10.074;2022-09-09T04:46:27;1.13;;;1.10;;
1174;SDS011;576;48.418;10.074;2022-09-09T04:48:56;1.40;;;1.30;;
1174;SDS011;576;48.418;10.074;2022-09-09T04:51:28;1.33;;;1.23;;
1174;SDS011;576;48.418;10.074;2022-09-09T04:53:58;3.60;;;1.20;;
1174;SDS011;576;48.418;10.074;2022-09-09T04:56:27;1.23;;;1.20;;
1174;SDS011;576;48.418;10.074;2022-09-09T04:58:57;1.30;;;1.20;;
1174;SDS011;576;48.418;10.074;2022-09-09T05:01:40;1.60;;;1.30;;
1174;SDS011;576;48.418;10.074;2022-09-09T05:04:10;1.30;;;1.20;;
1174;SDS011;576;48.418;10.074;2022-09-09T05:06:38;1.70;;;1.60;;
1174;SDS011;576;48.418;10.074;2022-09-09T05:09:08;1.40;;;1.30;;
1174;SDS011;576;48.418;10.074;2022-09-09T05:11:36;1.60;;;1.20;;
1174;SDS011;576;48.418;10.074;2022-09-09T05:14:14;1.33;;;1.10;;
1174;SDS011;576;48.418;10.074;2022-09-09T05:16:44;1.27;;;1.17;;
1174;SDS011;576;48.418;10.074;2022-09-09T05:19:13;1.00;;;1.00;;
1174;SDS011;576;48.418;10.074;2022-09-09T05:21:45;1.30;;;1.20;;
1174;SDS011;576;48.418;10.074;2022-09-09T05:24:18;1.13;;;1.13;;
1174;SDS011;576;48.418;10.074;2022-09-09T05:26:49;1.47;;;1.30;;
1174;SDS011;576;48.418;10.074;2022-09-09T05:29:17;2.20;;;1.63;;
1174;SDS011;576;48.418;10.074;2022-09-09T05:31:46;1.60;;;1.50;;
1174;SDS011;576;48.418;10.074;2022-09-09T05:34:18;1.30;;;1.20;;
1174;SDS011;576;48.418;10.074;2022-09-09T05:36:48;1.30;;;1.20;;
1174;SDS011;576;48.418;10.074;2022-09-09T05:39:21;2.67;;;1.67;;
1174;SDS011;576;48.418;10.074;2022-09-09T05:41:50;1.27;;;1.17;;
1174;SDS011;576;48.418;10.074;2022-09-09T05:44:18;1.50;;;1.40;;
1174;SDS011;576;48.418;10.074;2022-09-09T05:46:46;1.70;;;1.20;;
1174;SDS011;576;48.418;10.074;2022-09-09T05:49:16;2.43;;;1.63;;
1174;SDS011;576;48.418;10.074;2022-09-09T05:51:44;1.30;;;1.10;;
1174;SDS011;576;48.418;10.074;2022-09-09T05:54:13;1.97;;;1.73;;
1174;SDS011;576;48.418;10.074;2022-09-09T05:56:47;1.47;;;1.37;;
1174;SDS011;576;48.418;10.074;2022-09-09T05:59:19;1.33;;;1.10;;
1174;SDS011;576;48.418;10.074;2022-09-09T06:01:51;1.73;;;1.63;;
1174;SDS011;576;48.418;10.074;2022-09-09T06:04:28;1.90;;;1.70;;
1174;SDS011;576;48.418;10.074;2022-09-09T06:06:58;1.33;;;1.23;;
1174;SDS011;576;48.418;10.074;2022-09-09T06:09:28;1.40;;;1.30;;
1174;SDS011;576;48.418;10.074;2022-09-09T06:11:58;1.50;;;1.40;;
1174;SDS011;576;48.418;10.074;2022-09-09T06:14:26;1.70;;;1.10;;
1174;SDS011;576;48.418;10.074;2022-09-09T06:16:57;1.20;;;1.10;;
1174;SDS011;576;48.418;10.074;2022-09-09T06:19:28;2.60;;;1.57;;
1174;SDS011;576;48.418;10.074;2022-09-09T06:21:58;1.70;;;1.60;;
1174;SDS011;576;48.418;10.074;2022-09-09T06:24:28;2.40;;;1.83;;
1174;SDS011;576;48.418;10.074;2022-09-09T06:27:00;3.17;;;1.20;;
1174;SDS011;576;48.418;10.074;2022-09-09T06:29:32;2.40;;;2.00;;
1174;SDS011;576;48.418;10.074;2022-09-09T06:32:01;2.17;;;1.97;;
1174;SDS011;576;48.418;10.074;2022-09-09T06:34:30;1.77;;;1.50;;
1174;SDS011;576;48.418;10.074;2022-09-09T06:36:59;2.33;;;1.57;;
1174;SDS011;576;48.418;10.074;2022-09-09T06:39:48;2.53;;;1.30;;
1174;SDS011;576;48.418;10.074;2022-09-09T06:42:18;1.70;;;1.60;;
1174;SDS011;576;48.418;10.074;2022-09-09T06:44:48;1.90;;;1.40;;
1174;SDS011;576;48.418;10.074;2022-09-09T06:47:23;1.60;;;1.50;;
1174;SDS011;576;48.418;10.074;2022-09-09T06:49:52;1.53;;;1.30;;
1174;SDS011;576;48.418;10.074;2022-09-09T06:52:20;1.27;;;1.20;;
1174;SDS011;576;48.418;10.074;2022-09-09T06:54:49;2.40;;;2.07;;
1174;SDS011;576;48.418;10.074;2022-09-09T06:57:19;2.10;;;1.90;;
1174;SDS011;576;48.418;10.074;2022-09-09T07:00:05;2.30;;;1.87;;
1174;SDS011;576;48.418;10.074;2022-09-09T07:02:34;1.40;;;1.30;;
1174;SDS011;576;48.418;10.074;2022-09-09T07:05:07;1.30;;;1.20;;
1174;SDS011;576;48.418;10.074;2022-09-09T07:07:36;3.37;;;1.20;;
1174;SDS011;576;48.418;10.074;2022-09-09T07:10:05;1.87;;;1.47;;
1174;SDS011;576;48.418;10.074;2022-09-09T07:12:37;2.10;;;1.73;;
1174;SDS011;576;48.418;10.074;2022-09-09T07:15:09;3.10;;;1.87;;
1174;SDS011;576;48.418;10.074;2022-09-09T07:17:41;1.60;;;1.50;;
1174;SDS011;576;48.418;10.074;2022-09-09T07:20:09;4.23;;;1.73;;
1174;SDS011;576;48.418;10.074;2022-09-09T07:22:38;3.23;;;1.70;;
1174;SDS011;576;48.418;10.074;2022-09-09T07:25:07;1.60;;;1.50;;
1174;SDS011;576;48.418;10.074;2022-09-09T07:27:37;2.20;;;1.60;;
1174;SDS011;576;48.418;10.074;2022-09-09T07:30:08;1.90;;;1.53;;
1174;SDS011;576;48.418;10.074;2022-09-09T07:32:45;2.63;;;1.30;;
1174;SDS011;576;48.418;10.074;2022-09-09T07:35:13;1.43;;;1.30;;
1174;SDS011;576;48.418;10.074;2022-09-09T07:37:41;2.80;;;1.90;;
1174;SDS011;576;48.418;10.074;2022-09-09T07:40:17;3.97;;;1.43;;
1174;SDS011;576;48.418;10.074;2022-09-09T07:42:47;2.07;;;1.33;;
1174;SDS011;576;48.418;10.074;2022-09-09T07:45:16;2.40;;;1.80;;
1174;SDS011;576;48.418;10.074;2022-09-09T07:47:44;3.10;;;1.70;;
1174;SDS011;576;48.418;10.074;2022-09-09T07:50:14;1.47;;;1.37;;
1174;SDS011;576;48.418;10.074;2022-09-09T07:52:43;2.50;;;2.30;;
1174;SDS011;576;48.418;10.074;2022-09-09T07:55:11;2.13;;;1.90;;
1174;SDS011;576;48.418;10.074;2022-09-09T07:57:40;2.10;;;1.90;;
1174;SDS011;576;48.418;10.074;2022-09-09T08:00:11;1.93;;;1.20;;
1174;SDS011;576;48.418;10.074;2022-09-09T08:02:44;3.00;;;1.60;;
1174;SDS011;576;48.418;10.074;2022-09-09T08:05:14;1.30;;;1.20;;
1174;SDS011;576;48.418;10.074;2022-09-09T08:07:43;1.33;;;1.23;;
1174;SDS011;576;48.418;10.074;2022-09-09T08:10:12;1.50;;;1.40;;
1174;SDS011;576;48.418;10.074;2022-09-09T08:12:41;1.63;;;1.37;;
1174;SDS011;576;48.418;10.074;2022-09-09T08:15:30;1.50;;;1.40;;
1174;SDS011;576;48.418;10.074;2022-09-09T08:18:01;1.53;;;1.40;;
1174;SDS011;576;48.418;10.074;2022-09-09T08:20:31;1.70;;;1.60;;
1174;SDS011;576;48.418;10.074;2022-09-09T08:23:00;2.17;;;1.97;;
1174;SDS011;576;48.418;10.074;2022-09-09T08:25:28;2.07;;;1.97;;
1174;SDS011;576;48.418;10.074;2022-09-09T08:27:56;2.80;;;1.80;;
1174;SDS011;576;48.418;10.074;2022-09-09T08:30:24;3.37;;;2.43;;
1174;SDS011;576;48.418;10.074;2022-09-09T08:32:54;1.60;;;1.50;;
1174;SDS011;576;48.418;10.074;2022-09-09T08:35:23;1.90;;;1.77;;
1174;SDS011;576;48.418;10.074;2022-09-09T08:37:53;2.73;;;1.40;;
1174;SDS011;576;48.418;10.074;2022-09-09T08:40:22;1.47;;;1.37;;
1174;SDS011;576;48.418;10.074;2022-09-09T08:42:57;1.50;;;1.33;;
1174;SDS011;576;48.418;10.074;2022-09-09T08:45:31;1.77;;;1.67;;
1174;SDS011;576;48.418;10.074;2022-09-09T08:48:10;1.90;;;1.70;;
1174;SDS011;576;48.418;10.074;2022-09-09T08:50:53;1.83;;;1.40;;
1174;SDS011;576;48.418;10.074;2022-09-09T08:53:30;1.37;;;1.27;;
1174;SDS011;576;48.418;10.074;2022-09-09T08:56:12;2.90;;;1.50;;
1174;SDS011;576;48.418;10.074;2022-09-09T08:58:47;1.70;;;1.60;;
1174;SDS011;576;48.418;10.074;2022-09-09T09:01:28;1.30;;;1.20;;
1174;SDS011;576;48.418;10.074;2022-09-09T09:04:28;2.00;;;1.53;;
1174;SDS011;576;48.418;10.074;2022-09-09T09:07:05;2.17;;;1.40;;
1174;SDS011;576;48.418;10.074;2022-09-09T09:09:45;3.57;;;1.60;;
1174;SDS011;576;48.418;10.074;2022-09-09T09:12:26;5.37;;;1.67;;
1174;SDS011;576;48.418;10.074;2022-09-09T09:14:58;2.30;;;1.50;;
1174;SDS011;576;48.418;10.074;2022-09-09T09:17:27;2.50;;;1.50;;
1174;SDS011;576;48.418;10.074;2022-09-09T09:20:01;1.63;;;1.53;;
1174;SDS011;576;48.418;10.074;2022-09-09T09:22:35;1.70;;;1.57;;
1174;SDS011;576;48.418;10.074;2022-09-09T09:25:14;1.40;;;1.27;;
1174;SDS011;576;48.418;10.074;2022-09-09T09:27:49;3.17;;;1.90;;
1174;SDS011;576;48.418;10.074;2022-09-09T09:30:26;5.77;;;1.60;;
1174;SDS011;576;48.418;10.074;2022-09-09T09:33:04;2.47;;;1.40;;
1174;SDS011;576;48.418;10.074;2022-09-09T09:35:41;2.03;;;1.60;;
1174;SDS011;576;48.418;10.074;2022-09-09T09:38:16;1.50;;;1.10;;
1174;SDS011;576;48.418;10.074;2022-09-09T09:41:12;1.50;;;1.40;;
1174;SDS011;576;48.418;10.074;2022-09-09T09:43:41;1.83;;;1.57;;
1174;SDS011;576;48.418;10.074;2022-09-09T09:46:19;1.43;;;1.20;;
1174;SDS011;576;48.418;10.074;2022-09-09T09:48:56;2.80;;;1.50;;
1174;SDS011;576;48.418;10.074;2022-09-09T09:51:27;4.63;;;1.27;;
1174;SDS011;576;48.418;10.074;2022-09-09T09:54:08;1.90;;;1.57;;
1174;SDS011;576;48.418;10.074;2022-09-09T09:56:46;1.77;;;1.50;;
1174;SDS011;576;48.418;10.074;2022-09-09T09:59:22;2.60;;;1.60;;
1174;SDS011;576;48.418;10.074;2022-09-09T10:02:18;1.53;;;1.43;;
1174;SDS011;576;48.418;10.074;2022-09-09T10:05:03;2.10;;;1.53;;
1174;SDS011;576;48.418;10.074;2022-09-09T10:07:36;2.10;;;1.40;;
1174;SDS011;576;48.418;10.074;2022-09-09T10:10:05;1.50;;;1.40;;
1174;SDS011;576;48.418;10.074;2022-09-09T10:12:42;1.67;;;1.57;;
1174;SDS011;576;48.418;10.074;2022-09-09T10:15:24;2.33;;;1.30;;
1174;SDS011;576;48.418;10.074;2022-09-09T10:18:04;1.37;;;1.27;;
1174;SDS011;576;48.418;10.074;2022-09-09T10:20:45;1.27;;;1.13;;
1174;SDS011;576;48.418;10.074;2022-09-09T10:23:26;1.07;;;0.97;;
1174;SDS011;576;48.418;10.074;2022-09-09T10:26:18;1.73;;;1.30;;
1174;SDS011;576;48.418;10.074;2022-09-09T10:29:03;1.30;;;1.20;;
1174;SDS011;576;48.418;10.074;2022-09-09T10:32:07;1.77;;;1.33;;
1174;SDS011;576;48.418;10.074;2022-09-09T10:34:55;1.87;;;1.00;;
1174;SDS011;576;48.418;10.074;2022-09-09T10:37:35;1.30;;;1.20;;
1174;SDS011;576;48.418;10.074;2022-09-09T10:40:21;1.40;;;1.30;;
1174;SDS011;576;48.418;10.074;2022-09-09T10:42:59;2.40;;;1.20;;
1174;SDS011;576;48.418;10.074;2022-09-09T10:45:39;1.20;;;1.10;;
1174;SDS011;576;48.418;10.074;2022-09-09T10:48:23;1.40;;;1.17;;
1174;SDS011;576;48.418;10.074;2022-09-09T10:51:02;1.27;;;1.10;;
1174;SDS011;576;48.418;10.074;2022-09-09T10:53:52;3.17;;;1.23;;
1174;SDS011;576;48.418;10.074;2022-09-09T10:56:31;2.20;;;1.10;;
1174;SDS011;576;48.418;10.074;2022-09-09T10:59:02;1.90;;;1.23;;
1174;SDS011;576;48.418;10.074;2022-09-09T11:01:37;1.53;;;1.40;;
1174;SDS011;576;48.418;10.074;2022-09-09T11:04:12;1.30;;;0.93;;
1174;SDS011;576;48.418;10.074;2022-09-09T11:06:46;1.40;;;1.30;;
1174;SDS011;576;48.418;10.074;2022-09-09T11:09:18;0.80;;;0.80;;
1174;SDS011;576;48.418;10.074;2022-09-09T11:11:52;1.77;;;1.30;;
1174;SDS011;576;48.418;10.074;2022-09-09T11:14:26;1.20;;;0.93;;
1174;SDS011;576;48.418;10.074;2022-09-09T11:17:03;1.80;;;0.87;;
1174;SDS011;576;48.418;10.074;2022-09-09T11:19:43;1.10;;;0.97;;
1174;SDS011;576;48.418;10.074;2022-09-09T11:22:15;1.10;;;1.00;;
1174;SDS011;576;48.418;10.074;2022-09-09T11:24:53;3.43;;;0.90;;
1174;SDS011;576;48.418;10.074;2022-09-09T11:27:29;0.70;;;0.70;;
1174;SDS011;576;48.418;10.074;2022-09-09T11:30:10;1.63;;;1.20;;
1174;SDS011;576;48.418;10.074;2022-09-09T11:33:13;1.33;;;1.00;;
1174;SDS011;576;48.418;10.074;2022-09-09T11:36:12;1.87;;;0.93;;
1174;SDS011;576;48.418;10.074;2022-09-09T11:38:59;1.07;;;0.83;;
1174;SDS011;576;48.418;10.074;2022-09-09T11:41:35;1.50;;;0.90;;
1174;SDS011;576;48.418;10.074;2022-09-09T11:44:11;1.10;;;1.03;;
1174;SDS011;576;48.418;10.074;2022-09-09T11:46:44;3.00;;;1.13;;
1174;SDS011;576;48.418;10.074;2022-09-09T11:49:25;1.90;;;1.03;;
1174;SDS011;576;48.418;10.074;2022-09-09T11:51:55;1.00;;;1.00;;
1174;SDS011;576;48.418;10.074;2022-09-09T11:54:30;1.43;;;0.80;;
1174;SDS011;576;48.418;10.074;2022-09-09T11:56:59;1.17;;;1.07;;
1174;SDS011;576;48.418;10.074;2022-09-09T11:59:29;1.03;;;0.97;;
1174;SDS011;576;48.418;10.074;2022-09-09T12:01:58;0.67;;;0.67;;
1174;SDS011;576;48.418;10.074;2022-09-09T12:04:33;0.80;;;0.80;;
1174;SDS011;576;48.418;10.074;2022-09-09T12:07:21;1.43;;;0.83;;
1174;SDS011;576;48.418;10.074;2022-09-09T12:09:58;1.40;;;0.90;;
1174;SDS011;576;48.418;10.074;2022-09-09T12:12:32;3.33;;;0.80;;
1174;SDS011;576;48.418;10.074;2022-09-09T12:15:23;1.10;;;1.00;;
1174;SDS011;576;48.418;10.074;2022-09-09T12:17:56;0.90;;;0.90;;
1174;SDS011;576;48.418;10.074;2022-09-09T12:20:31;0.83;;;0.83;;
1174;SDS011;576;48.418;10.074;2022-09-09T12:23:05;1.33;;;0.90;;
1174;SDS011;576;48.418;10.074;2022-09-09T12:25:55;1.20;;;0.80;;
1174;SDS011;576;48.418;10.074;2022-09-09T12:28:41;1.70;;;0.93;;
1174;SDS011;576;48.418;10.074;2022-09-09T12:31:21;1.90;;;0.83;;
1174;SDS011;576;48.418;10.074;2022-09-09T12:33:52;0.90;;;0.90;;
1174;SDS011;576;48.418;10.074;2022-09-09T12:36:21;2.83;;;0.90;;
1174;SDS011;576;48.418;10.074;2022-09-09T12:38:54;1.53;;;1.00;;
1174;SDS011;576;48.418;10.074;2022-09-09T12:41:26;1.03;;;0.90;;
1174;SDS011;576;48.418;10.074;2022-09-09T12:44:03;1.90;;;1.20;;
1174;SDS011;576;48.418;10.074;2022-09-09T12:46:36;1.03;;;0.93;;
1174;SDS011;576;48.418;10.074;2022-09-09T12:49:20;1.60;;;0.70;;
1174;SDS011;576;48.418;10.074;2022-09-09T12:51:55;1.00;;;0.90;;
1174;SDS011;576;48.418;10.074;2022-09-09T12:54:24;1.03;;;0.97;;
1174;SDS011;576;48.418;10.074;2022-09-09T12:56:54;1.93;;;1.17;;
1174;SDS011;576;48.418;10.074;2022-09-09T12:59:23;0.87;;;0.87;;
1174;SDS011;576;48.418;10.074;2022-09-09T13:01:56;1.80;;;0.70;;
1174;SDS011;576;48.418;10.074;2022-09-09T13:04:26;0.80;;;0.73;;
1174;SDS011;576;48.418;10.074;2022-09-09T13:07:04;0.80;;;0.80;;
1174;SDS011;576;48.418;10.074;2022-09-09T13:09:37;1.00;;;0.90;;
1174;SDS011;576;48.418;10.074;2022-09-09T13:12:06;0.90;;;0.90;;
1174;SDS011;576;48.418;10.074;2022-09-09T13:14:42;1.23;;;1.07;;
1174;SDS011;576;48.418;10.074;2022-09-09T13:17:19;1.70;;;0.70;;
1174;SDS011;576;48.418;10.074;2022-09-09T13:19:49;1.73;;;1.00;;
1174;SDS011;576;48.418;10.074;2022-09-09T13:22:26;1.10;;;0.90;;
1174;SDS011;576;48.418;10.074;2022-09-09T13:25:00;1.50;;;0.87;;
1174;SDS011;576;48.418;10.074;2022-09-09T13:27:31;1.47;;;0.90;;
1174;SDS011;576;48.418;10.074;2022-09-09T13:30:19;1.50;;;0.90;;
1174;SDS011;576;48.418;10.074;2022-09-09T13:33:01;2.07;;;0.80;;
1174;SDS011;576;48.418;10.074;2022-09-09T13:35:33;2.60;;;1.23;;
1174;SDS011;576;48.418;10.074;2022-09-09T13:38:06;2.53;;;1.37;;
1174;SDS011;576;48.418;10.074;2022-09-09T13:40:37;1.70;;;1.10;;
1174;SDS011;576;48.418;10.074;2022-09-09T13:43:05;1.80;;;0.90;;
1174;SDS011;576;48.418;10.074;2022-09-09T13:45:52;1.33;;;0.83;;
1174;SDS011;576;48.418;10.074;2022-09-09T13:48:24;0.73;;;0.73;;
1174;SDS011;576;48.418;10.074;2022-09-09T13:50:57;1.13;;;0.83;;
1174;SDS011;576;48.418;10.074;2022-09-09T13:53:27;1.23;;;0.93;;
1174;SDS011;576;48.418;10.074;2022-09-09T13:55:57;1.00;;;0.70;;
1174;SDS011;576;48.418;10.074;2022-09-09T13:58:25;1.23;;;0.70;;
1174;SDS011;576;48.418;10.074;2022-09-09T14:00:53;0.70;;;0.70;;
1174;SDS011;576;48.418;10.074;2022-09-09T14:03:21;0.80;;;0.80;;
1174;SDS011;576;48.418;10.074;2022-09-09T14:05:51;0.93;;;0.93;;
1174;SDS011;576;48.418;10.074;2022-09-09T14:08:22;1.70;;;1.00;;
1174;SDS011;576;48.418;10.074;2022-09-09T14:10:52;1.50;;;0.80;;
1174;SDS011;576;48.418;10.074;2022-09-09T14:13:22;1.23;;;0.70;;
1174;SDS011;576;48.418;10.074;2022-09-09T14:15:50;0.80;;;0.80;;
1174;SDS011;576;48.418;10.074;2022-09-09T14:18:19;0.87;;;0.80;;
1174;SDS011;576;48.418;10.074;2022-09-09T14:20:50;1.83;;;0.60;;
1174;SDS011;576;48.418;10.074;2022-09-09T14:23:18;0.60;;;0.60;;
1174;SDS011;576;48.418;10.074;2022-09-09T14:25:48;2.90;;;1.23;;
1174;SDS011;576;48.418;10.074;2022-09-09T14:28:16;2.80;;;0.80;;
1174;SDS011;576;48.418;10.074;2022-09-09T14:31:10;1.20;;;0.70;;
1174;SDS011;576;48.418;10.074;2022-09-09T14:33:39;3.70;;;0.80;;
1174;SDS011;576;48.418;10.074;2022-09-09T14:36:12;1.10;;;0.93;;
1174;SDS011;576;48.418;10.074;2022-09-09T14:38:42;1.00;;;0.90;;
1174;SDS011;576;48.418;10.074;2022-09-09T14:41:11;1.30;;;1.00;;
1174;SDS011;576;48.418;10.074;2022-09-09T14:43:40;1.43;;;1.10;;
1174;SDS011;576;48.418;10.074;2022-09-09T14:46:09;3.47;;;1.00;;
1174;SDS011;576;48.418;10.074;2022-09-09T14:48:39;2.40;;;1.20;;
1174;SDS011;576;48.418;10.074;2022-09-09T14:51:08;1.93;;;1.00;;
1174;SDS011;576;48.418;10.074;2022-09-09T14:53:40;1.53;;;1.23;;
1174;SDS011;576;48.418;10.074;2022-09-09T14:56:09;1.23;;;1.17;;
1174;SDS011;576;48.418;10.074;2022-09-09T14:58:38;0.80;;;0.70;;
1174;SDS011;576;48.418;10.074;2022-09-09T15:01:10;2.23;;;0.97;;
1174;SDS011;576;48.418;10.074;2022-09-09T15:03:40;1.07;;;0.97;;
1174;SDS011;576;48.418;10.074;2022-09-09T15:06:10;2.30;;;0.70;;
1174;SDS011;576;48.418;10.074;2022-09-09T15:08:42;1.47;;;1.10;;
1174;SDS011;576;48.418;10.074;2022-09-09T15:11:12;2.27;;;1.33;;
1174;SDS011;576;48.418;10.074;2022-09-09T15:13:42;1.00;;;1.00;;
1174;SDS011;576;48.418;10.074;2022-09-09T15:16:11;2.97;;;0.77;;
1174;SDS011;576;48.418;10.074;2022-09-09T15:18:41;1.63;;;1.20;;
1174;SDS011;576;48.418;10.074;2022-09-09T15:21:12;3.97;;;1.27;;
1174;SDS011;576;48.418;10.074;2022-09-09T15:23:43;1.80;;;0.90;;
1174;SDS011;576;48.418;10.074;2022-09-09T15:26:11;1.23;;;1.13;;
1174;SDS011;576;48.418;10.074;2022-09-09T15:28:40;5.67;;;1.30;;
1174;SDS011;576;48.418;10.074;2022-09-09T15:31:11;1.10;;;1.00;;
1174;SDS011;576;48.418;10.074;2022-09-09T15:33:46;1.57;;;1.10;;
1174;SDS011;576;48.418;10.074;2022-09-09T15:36:16;1.57;;;1.40;;
1174;SDS011;576;48.418;10.074;2022-09-09T15:38:47;1.73;;;0.90;;
1174;SDS011;576;48.418;10.074;2022-09-09T15:41:16;1.30;;;1.20;;
1174;SDS011;576;48.418;10.074;2022-09-09T15:43:45;0.80;;;0.80;;
1174;SDS011;576;48.418;10.074;2022-09-09T15:46:23;0.97;;;0.80;;
1174;SDS011;576;48.418;10.074;2022-09-09T15:48:54;3.70;;;1.13;;
1174;SDS011;576;48.418;10.074;2022-09-09T15:51:24;1.07;;;0.83;;
1174;SDS011;576;48.418;10.074;2022-09-09T15:54:10;3.23;;;1.27;;
1174;SDS011;576;48.418;10.074;2022-09-09T15:56:39;1.03;;;0.80;;
1174;SDS011;576;48.418;10.074;2022-09-09T15:59:08;1.60;;;0.80;;